Beowawe, Nevada
Current Conditions -  °F | °C
As of 10:56 PM on Monday 20 Oct 2014 (Local Time) from KEKO Reporting Station
Few Clouds Few Clouds  
Wind Chill: 59°   Ceiling: Unl
Heat Index: 59°   Visibility: 10mi
Dew Point: 27°   Wind: 7mph
Humidity: 29%   Direction: 210°SSW
Pressure: 29.83"   Gusts: NA
Location:  40.4796°N, 116.369°W
Report Text: KEKO 210556Z AUTO 21006KT 10SM FEW110 15/M03 A2983 RMK AO2 SLP055 T01501028 10233 20144 53001
Loading
Personal Weather Stations






























Interactive Weather Map
Tropical Storm Tracking
New forecast layout! Learn more

10-Day Weather Forecast

Advertisements
Track Severe Weather on mobile